Time;durP1;ratioP1;P1;durP2;ratioP2;P2;SDS_P1;SDS_P2;PMS_P1;PMS_P2;Temp;Humidity;BMP_temperature;BMP_pressure;BME280_temperature;BME280_humidity;BME280_pressure;Samples;Min_cycle;Max_cycle;Signal;HPM_P1;HPM_P2
2023/12/20 00:02:25;;;;;;;8.70;6.32;;;;;;;;;;4983625;28;20100;-79
2023/12/20 00:04:50;;;;;;;9.82;6.85;;;;;;;;;;4988821;28;20144;-79
2023/12/20 00:07:16;;;;;;;10.35;6.35;;;;;;;;;;4997968;28;20060;-80
2023/12/20 00:09:41;;;;;;;9.45;6.30;;;;;;;;;;4998970;28;20037;-80
2023/12/20 00:12:07;;;;;;;9.55;6.25;;;;;;;;;;4985611;28;20557;-79
2023/12/20 00:14:32;;;;;;;10.23;5.93;;;;;;;;;;5005925;28;20425;-78
2023/12/20 00:16:57;;;;;;;9.38;6.15;;;;;;;;;;4982245;28;20065;-77
2023/12/20 00:19:23;;;;;;;9.05;6.00;;;;;;;;;;4987530;28;20049;-78
2023/12/20 00:21:49;;;;;;;8.45;6.10;;;;;;;;;;4995445;28;20033;-78
2023/12/20 00:24:14;;;;;;;9.05;6.15;;;;;;;;;;4982763;28;20107;-78
2023/12/20 00:26:40;;;;;;;9.90;6.28;;;;;;;;;;4971649;28;20521;-78
2023/12/20 00:29:06;;;;;;;9.27;5.85;;;;;;;;;;4990055;28;20603;-77
2023/12/20 00:31:31;;;;;;;7.55;5.15;;;;;;;;;;4996952;28;20118;-77
2023/12/20 00:33:57;;;;;;;9.18;6.30;;;;;;;;;;4987678;28;20038;-77
2023/12/20 00:36:22;;;;;;;8.60;5.70;;;;;;;;;;4970090;28;20053;-76
2023/12/20 00:38:48;;;;;;;10.35;5.78;;;;;;;;;;4983934;28;20091;-77
2023/12/20 00:41:15;;;;;;;9.38;5.63;;;;;;;;;;4984091;28;20144;-77
2023/12/20 00:43:40;;;;;;;9.80;6.18;;;;;;;;;;4998911;28;20038;-77
2023/12/20 00:46:05;;;;;;;8.32;5.68;;;;;;;;;;4993545;28;20410;-77
2023/12/20 00:48:31;;;;;;;8.43;5.80;;;;;;;;;;4995142;28;20062;-78
2023/12/20 00:50:57;;;;;;;8.43;5.70;;;;;;;;;;4988592;28;20033;-79
2023/12/20 00:53:22;;;;;;;8.52;5.75;;;;;;;;;;5011455;28;20041;-79
2023/12/20 00:55:48;;;;;;;7.47;5.22;;;;;;;;;;4988151;28;20037;-78
2023/12/20 00:58:15;;;;;;;7.43;5.28;;;;;;;;;;4983085;28;20172;-79
2023/12/20 01:00:42;;;;;;;8.57;5.68;;;;;;;;;;4996262;28;20034;-79
2023/12/20 01:03:07;;;;;;;7.67;5.40;;;;;;;;;;4984923;28;20498;-79
2023/12/20 01:05:32;;;;;;;8.65;5.63;;;;;;;;;;4994827;28;20030;-79
2023/12/20 01:07:58;;;;;;;9.15;5.88;;;;;;;;;;4989417;28;20574;-78
2023/12/20 01:10:23;;;;;;;9.35;5.97;;;;;;;;;;4988991;28;20095;-78
2023/12/20 01:12:49;;;;;;;8.20;5.43;;;;;;;;;;4982557;28;20026;-79
2023/12/20 01:15:14;;;;;;;8.43;5.60;;;;;;;;;;4991091;28;20118;-78
2023/12/20 01:17:39;;;;;;;7.57;5.13;;;;;;;;;;5001615;28;20045;-78
2023/12/20 01:20:06;;;;;;;8.30;5.78;;;;;;;;;;5018190;28;20033;-78
2023/12/20 01:22:31;;;;;;;9.30;6.07;;;;;;;;;;4981823;28;20044;-79
2023/12/20 01:24:57;;;;;;;9.15;5.88;;;;;;;;;;4997180;28;20442;-79
2023/12/20 01:27:22;;;;;;;7.88;5.57;;;;;;;;;;5014217;28;20132;-78
2023/12/20 01:29:47;;;;;;;9.15;5.80;;;;;;;;;;4998656;28;20038;-78
2023/12/20 01:32:13;;;;;;;8.13;5.63;;;;;;;;;;4987769;28;20036;-79
2023/12/20 01:34:38;;;;;;;8.10;5.38;;;;;;;;;;4999425;28;20045;-78
2023/12/20 01:37:04;;;;;;;8.20;5.50;;;;;;;;;;4985514;28;20079;-78
2023/12/20 01:39:29;;;;;;;8.75;5.85;;;;;;;;;;4996571;28;20037;-79
2023/12/20 01:41:54;;;;;;;8.32;5.63;;;;;;;;;;4997821;28;20034;-78
2023/12/20 01:44:20;;;;;;;8.18;5.38;;;;;;;;;;4999744;28;20395;-78
2023/12/20 01:46:46;;;;;;;7.43;5.03;;;;;;;;;;5011294;28;20040;-78
2023/12/20 01:49:12;;;;;;;7.45;5.20;;;;;;;;;;5000611;28;20070;-78
2023/12/20 01:51:37;;;;;;;7.00;4.95;;;;;;;;;;4993305;28;20459;-79
2023/12/20 01:54:04;;;;;;;9.30;6.10;;;;;;;;;;4995350;28;20034;-79
2023/12/20 01:56:30;;;;;;;7.82;5.55;;;;;;;;;;4995737;28;20423;-79
2023/12/20 01:58:56;;;;;;;7.93;5.35;;;;;;;;;;4977512;28;20447;-80
2023/12/20 02:01:21;;;;;;;8.35;5.57;;;;;;;;;;4985186;28;20057;-80
2023/12/20 02:03:47;;;;;;;8.07;5.60;;;;;;;;;;4993341;28;20041;-80
2023/12/20 02:06:12;;;;;;;9.18;5.90;;;;;;;;;;4992824;28;20030;-79
2023/12/20 02:08:38;;;;;;;8.32;5.82;;;;;;;;;;4995269;28;20038;-77
2023/12/20 02:11:03;;;;;;;8.57;5.95;;;;;;;;;;4994180;28;20372;-79
2023/12/20 02:13:30;;;;;;;9.40;6.50;;;;;;;;;;4993358;28;20498;-77
2023/12/20 02:15:56;;;;;;;10.03;6.77;;;;;;;;;;4980016;28;20046;-78
2023/12/20 02:18:21;;;;;;;11.13;6.57;;;;;;;;;;4994805;28;20380;-78
2023/12/20 02:20:46;;;;;;;10.68;6.68;;;;;;;;;;4993069;28;20045;-79
2023/12/20 02:23:12;;;;;;;9.68;6.55;;;;;;;;;;4991024;28;20491;-78
2023/12/20 02:25:37;;;;;;;10.48;7.10;;;;;;;;;;4996132;28;20060;-78
2023/12/20 02:28:04;;;;;;;10.38;7.20;;;;;;;;;;4997166;28;20177;-79
2023/12/20 02:30:29;;;;;;;9.93;6.60;;;;;;;;;;4999415;28;20490;-79
2023/12/20 02:32:54;;;;;;;10.88;7.20;;;;;;;;;;5000886;28;20037;-79
2023/12/20 02:35:20;;;;;;;11.18;7.18;;;;;;;;;;4998001;28;20038;-79
2023/12/20 02:37:45;;;;;;;11.45;7.38;;;;;;;;;;4993376;28;20069;-79
2023/12/20 02:40:11;;;;;;;10.48;7.40;;;;;;;;;;4983703;28;20481;-79
2023/12/20 02:42:36;;;;;;;13.55;8.43;;;;;;;;;;4988146;28;20113;-78
2023/12/20 02:45:02;;;;;;;15.55;8.63;;;;;;;;;;4987181;28;20042;-79
2023/12/20 02:47:29;;;;;;;12.63;8.40;;;;;;;;;;5000807;28;20041;-79
2023/12/20 02:49:55;;;;;;;13.70;9.40;;;;;;;;;;4979613;28;20042;-79
2023/12/20 02:52:20;;;;;;;13.25;8.55;;;;;;;;;;4995928;28;20053;-78
2023/12/20 02:54:45;;;;;;;14.85;9.27;;;;;;;;;;4994780;28;20038;-78
2023/12/20 02:57:11;;;;;;;16.42;9.18;;;;;;;;;;4999997;28;20526;-78
2023/12/20 02:59:37;;;;;;;12.50;8.73;;;;;;;;;;4983496;28;20030;-79
2023/12/20 03:02:02;;;;;;;15.05;8.88;;;;;;;;;;4978621;28;20731;-78
2023/12/20 03:04:28;;;;;;;14.13;9.10;;;;;;;;;;4999902;28;20042;-77
2023/12/20 03:06:53;;;;;;;13.50;8.88;;;;;;;;;;4992571;28;20065;-78
2023/12/20 03:09:18;;;;;;;13.73;8.07;;;;;;;;;;4994926;28;20049;-79
2023/12/20 03:11:44;;;;;;;13.82;7.97;;;;;;;;;;4987368;28;20553;-78
2023/12/20 03:14:09;;;;;;;14.50;8.77;;;;;;;;;;4982548;28;20041;-78
2023/12/20 03:16:35;;;;;;;13.50;8.52;;;;;;;;;;4982346;28;20034;-78
2023/12/20 03:19:00;;;;;;;15.40;8.68;;;;;;;;;;4997001;28;20037;-78
2023/12/20 03:21:26;;;;;;;15.45;8.95;;;;;;;;;;4975472;28;20038;-79
2023/12/20 03:23:51;;;;;;;13.85;8.32;;;;;;;;;;5010909;28;20065;-78
2023/12/20 03:26:17;;;;;;;13.07;8.00;;;;;;;;;;4994219;28;20046;-78
2023/12/20 03:28:42;;;;;;;13.27;8.00;;;;;;;;;;4995091;28;20034;-78
2023/12/20 03:31:09;;;;;;;14.02;8.02;;;;;;;;;;4986131;28;20462;-79
2023/12/20 03:33:38;;;;;;;12.10;7.70;;;;;;;;;;5010974;28;20476;-78
2023/12/20 03:36:04;;;;;;;15.48;7.88;;;;;;;;;;4984248;28;20033;-79
2023/12/20 03:38:29;;;;;;;13.13;7.80;;;;;;;;;;4980601;28;20399;-78
2023/12/20 03:40:54;;;;;;;12.40;7.13;;;;;;;;;;5000932;28;20053;-79
2023/12/20 03:43:20;;;;;;;12.57;7.63;;;;;;;;;;4996872;28;20566;-78
2023/12/20 03:45:45;;;;;;;14.68;7.57;;;;;;;;;;4975595;28;20034;-78
2023/12/20 03:48:11;;;;;;;13.02;7.95;;;;;;;;;;4970569;28;20060;-78
2023/12/20 03:50:39;;;;;;;15.32;7.82;;;;;;;;;;4999546;28;20141;-78
2023/12/20 03:53:04;;;;;;;15.02;8.15;;;;;;;;;;4994220;28;20034;-78
2023/12/20 03:55:30;;;;;;;12.60;7.57;;;;;;;;;;4993767;28;20061;-79
2023/12/20 03:57:55;;;;;;;13.77;8.20;;;;;;;;;;4987729;28;20038;-78
2023/12/20 04:00:21;;;;;;;11.38;6.65;;;;;;;;;;4993100;28;20038;-77
2023/12/20 04:02:46;;;;;;;11.75;6.15;;;;;;;;;;4991454;28;20045;-79
2023/12/20 04:05:12;;;;;;;11.55;5.18;;;;;;;;;;4982227;28;20038;-79
2023/12/20 04:07:38;;;;;;;10.50;4.93;;;;;;;;;;4992287;28;20058;-78
2023/12/20 04:10:04;;;;;;;11.13;4.78;;;;;;;;;;4996174;28;20038;-79
2023/12/20 04:12:33;;;;;;;10.32;4.85;;;;;;;;;;4983181;28;20999;-79
2023/12/20 04:14:59;;;;;;;10.23;4.53;;;;;;;;;;4985523;28;20076;-78
2023/12/20 04:17:24;;;;;;;8.70;4.82;;;;;;;;;;4985529;28;20057;-78
2023/12/20 04:19:50;;;;;;;10.60;4.90;;;;;;;;;;4998042;28;20041;-78
2023/12/20 04:22:17;;;;;;;10.38;4.57;;;;;;;;;;4978594;28;20033;-78
2023/12/20 04:24:43;;;;;;;8.95;4.35;;;;;;;;;;4981578;28;20058;-79
2023/12/20 04:27:08;;;;;;;10.73;4.28;;;;;;;;;;4995520;28;20086;-78
2023/12/20 04:29:34;;;;;;;8.00;3.45;;;;;;;;;;4991923;28;20157;-78
2023/12/20 04:32:00;;;;;;;9.65;3.30;;;;;;;;;;4979793;28;20045;-77
2023/12/20 04:34:25;;;;;;;8.07;3.47;;;;;;;;;;4997019;28;20066;-77
2023/12/20 04:36:51;;;;;;;8.57;3.35;;;;;;;;;;4969202;28;20069;-77
2023/12/20 04:39:16;;;;;;;8.73;3.55;;;;;;;;;;4997536;28;20038;-79
2023/12/20 04:41:44;;;;;;;10.60;3.90;;;;;;;;;;4971288;28;20042;-79
2023/12/20 04:44:09;;;;;;;10.98;3.78;;;;;;;;;;4995876;28;20036;-79
2023/12/20 04:46:35;;;;;;;11.75;3.92;;;;;;;;;;4993710;28;20488;-79
2023/12/20 04:49:01;;;;;;;8.30;3.60;;;;;;;;;;4995830;28;20131;-79
2023/12/20 04:51:26;;;;;;;9.05;3.17;;;;;;;;;;4995534;28;20042;-79
2023/12/20 04:53:51;;;;;;;10.50;2.97;;;;;;;;;;4994922;28;20124;-79
2023/12/20 04:56:17;;;;;;;8.55;2.90;;;;;;;;;;4992113;28;20043;-79
2023/12/20 04:58:42;;;;;;;12.05;2.85;;;;;;;;;;4996661;28;20034;-79
2023/12/20 05:01:09;;;;;;;11.93;2.55;;;;;;;;;;4994006;28;20038;-80
2023/12/20 05:03:34;;;;;;;8.20;2.10;;;;;;;;;;4982251;28;20042;-79
2023/12/20 05:06:01;;;;;;;10.95;2.40;;;;;;;;;;5001281;28;20041;-79
2023/12/20 05:08:27;;;;;;;9.00;2.38;;;;;;;;;;4997834;28;20030;-80
2023/12/20 05:10:56;;;;;;;7.47;2.10;;;;;;;;;;4992353;28;20506;-80
2023/12/20 05:13:21;;;;;;;8.57;2.30;;;;;;;;;;4995192;28;20534;-79
2023/12/20 05:15:55;;;;;;;12.20;3.00;;;;;;;;;;4960834;28;20039;-80
2023/12/20 05:18:21;;;;;;;9.23;1.75;;;;;;;;;;4983524;28;20096;-80
2023/12/20 05:20:47;;;;;;;13.57;2.92;;;;;;;;;;4994334;28;20030;-79
2023/12/20 05:23:15;;;;;;;8.30;1.90;;;;;;;;;;4985734;28;20562;-83
2023/12/20 05:25:41;;;;;;;7.35;2.03;;;;;;;;;;4982663;28;20113;-82
2023/12/20 05:28:06;;;;;;;11.27;1.80;;;;;;;;;;4981186;28;20464;-83
2023/12/20 05:30:32;;;;;;;8.35;1.70;;;;;;;;;;4986281;28;20040;-84
2023/12/20 05:32:57;;;;;;;6.43;1.45;;;;;;;;;;4991849;28;20492;-83
2023/12/20 05:35:23;;;;;;;10.13;1.80;;;;;;;;;;4961075;28;20038;-84
2023/12/20 05:40:49;;;;;;;11.02;1.70;;;;;;;;;;4991513;28;20045;-83
2023/12/20 05:43:14;;;;;;;13.68;2.50;;;;;;;;;;4974743;28;20040;-78
2023/12/20 05:45:40;;;;;;;10.13;1.80;;;;;;;;;;4972573;28;20041;-78
2023/12/20 05:48:06;;;;;;;8.85;1.67;;;;;;;;;;4991794;28;20042;-78
2023/12/20 05:50:31;;;;;;;15.23;2.15;;;;;;;;;;4995298;28;20052;-78
2023/12/20 05:52:57;;;;;;;8.98;2.35;;;;;;;;;;4976466;28;20036;-77
2023/12/20 05:55:22;;;;;;;6.93;1.92;;;;;;;;;;4982740;28;20053;-78
2023/12/20 05:57:48;;;;;;;8.48;1.85;;;;;;;;;;4973749;28;20045;-78
2023/12/20 06:00:15;;;;;;;8.45;2.00;;;;;;;;;;4984947;28;20034;-77
2023/12/20 06:02:41;;;;;;;12.38;1.95;;;;;;;;;;4985934;28;20025;-77
2023/12/20 06:05:06;;;;;;;10.05;1.85;;;;;;;;;;4989118;28;20053;-78
2023/12/20 06:07:32;;;;;;;12.35;2.13;;;;;;;;;;5000663;28;20045;-78
2023/12/20 06:09:57;;;;;;;10.05;1.88;;;;;;;;;;4999975;28;20507;-77
2023/12/20 06:12:23;;;;;;;11.65;2.35;;;;;;;;;;5004171;28;20034;-77
2023/12/20 06:14:48;;;;;;;9.77;1.85;;;;;;;;;;4984896;28;20042;-77
2023/12/20 06:17:14;;;;;;;9.63;1.48;;;;;;;;;;4976181;28;20467;-78
2023/12/20 06:19:39;;;;;;;10.07;2.03;;;;;;;;;;4988408;28;20034;-77
2023/12/20 06:22:05;;;;;;;8.93;2.10;;;;;;;;;;4998497;28;20487;-78
2023/12/20 06:24:33;;;;;;;12.18;2.75;;;;;;;;;;4981165;28;20034;-78
2023/12/20 06:26:59;;;;;;;11.75;2.40;;;;;;;;;;4981987;28;20047;-76
2023/12/20 06:29:24;;;;;;;11.43;2.28;;;;;;;;;;4981572;28;20037;-79
2023/12/20 06:31:50;;;;;;;11.85;2.35;;;;;;;;;;4987067;28;20038;-77
2023/12/20 06:34:15;;;;;;;8.20;2.08;;;;;;;;;;4987629;28;20116;-78
2023/12/20 06:36:41;;;;;;;12.18;2.35;;;;;;;;;;5016663;28;20133;-77
2023/12/20 06:39:06;;;;;;;7.80;2.17;;;;;;;;;;4981467;28;20074;-80
2023/12/20 06:41:32;;;;;;;12.18;2.47;;;;;;;;;;5011840;28;20118;-78
2023/12/20 06:43:57;;;;;;;13.75;2.72;;;;;;;;;;4997977;28;20162;-78
2023/12/20 06:46:23;;;;;;;8.48;2.20;;;;;;;;;;4997791;28;20038;-79
2023/12/20 06:48:54;;;;;;;8.65;2.15;;;;;;;;;;4998708;28;20076;-78
2023/12/20 06:51:25;;;;;;;16.10;2.72;;;;;;;;;;5000994;28;20403;-78
2023/12/20 06:53:51;;;;;;;6.30;2.03;;;;;;;;;;4999857;28;20058;-77
2023/12/20 06:56:17;;;;;;;11.75;2.35;;;;;;;;;;4989298;28;20111;-77
2023/12/20 06:58:42;;;;;;;10.27;2.10;;;;;;;;;;4990696;28;20037;-76
2023/12/20 07:01:14;;;;;;;14.23;2.40;;;;;;;;;;4982713;28;20048;-78
2023/12/20 07:03:43;;;;;;;11.25;2.50;;;;;;;;;;5012300;28;20030;-79
2023/12/20 07:06:08;;;;;;;7.68;2.25;;;;;;;;;;4990211;28;20096;-78
2023/12/20 07:08:34;;;;;;;11.80;3.00;;;;;;;;;;4999030;28;20038;-80
2023/12/20 07:10:59;;;;;;;13.95;2.30;;;;;;;;;;4998243;28;20029;-79
2023/12/20 07:13:25;;;;;;;9.27;2.30;;;;;;;;;;5014529;28;20061;-77
2023/12/20 07:15:50;;;;;;;12.10;2.13;;;;;;;;;;5000361;28;20029;-78
2023/12/20 07:18:16;;;;;;;11.30;2.35;;;;;;;;;;4967229;28;20392;-77
2023/12/20 07:20:43;;;;;;;11.30;2.35;;;;;;;;;;4995731;28;20041;-79
2023/12/20 07:23:08;;;;;;;11.05;2.28;;;;;;;;;;4998986;28;20038;-78
2023/12/20 07:25:34;;;;;;;12.25;2.30;;;;;;;;;;4990886;28;20441;-78
2023/12/20 07:27:59;;;;;;;7.50;1.90;;;;;;;;;;4988967;28;20041;-78
2023/12/20 07:30:25;;;;;;;8.95;2.10;;;;;;;;;;5007057;28;20537;-78
2023/12/20 07:32:52;;;;;;;8.82;2.15;;;;;;;;;;4982644;28;20041;-78
2023/12/20 07:35:17;;;;;;;6.25;2.00;;;;;;;;;;4999222;28;20088;-79
2023/12/20 07:37:43;;;;;;;11.60;2.03;;;;;;;;;;4980614;28;20534;-76
2023/12/20 07:40:09;;;;;;;8.73;2.00;;;;;;;;;;4996822;28;20492;-78
2023/12/20 07:42:34;;;;;;;9.27;2.05;;;;;;;;;;4990458;28;20056;-76
2023/12/20 07:44:59;;;;;;;10.23;1.67;;;;;;;;;;5000305;28;20469;-78
2023/12/20 07:47:25;;;;;;;11.07;2.22;;;;;;;;;;4999244;28;20073;-77
2023/12/20 07:49:54;;;;;;;10.00;1.92;;;;;;;;;;4989505;28;20041;-78
2023/12/20 07:52:21;;;;;;;9.90;1.75;;;;;;;;;;4998584;28;20080;-78
2023/12/20 07:54:47;;;;;;;10.82;1.85;;;;;;;;;;4999968;28;20536;-77
2023/12/20 07:57:32;;;;;;;9.48;1.67;;;;;;;;;;4999125;28;20034;-78
2023/12/20 07:59:58;;;;;;;9.10;1.50;;;;;;;;;;4963958;28;20038;-78
2023/12/20 08:02:23;;;;;;;9.38;1.65;;;;;;;;;;4949309;28;20038;-78
2023/12/20 08:04:49;;;;;;;9.23;1.55;;;;;;;;;;4963721;28;20035;-77
2023/12/20 08:07:14;;;;;;;9.75;1.67;;;;;;;;;;4957574;28;20039;-78
2023/12/20 08:09:40;;;;;;;6.55;1.80;;;;;;;;;;4932152;28;20057;-78
2023/12/20 08:12:06;;;;;;;10.02;1.90;;;;;;;;;;4963256;28;20050;-77
2023/12/20 08:14:32;;;;;;;6.68;1.40;;;;;;;;;;4964950;28;20109;-78
2023/12/20 08:16:57;;;;;;;8.43;1.70;;;;;;;;;;4949036;28;20042;-79
2023/12/20 08:19:22;;;;;;;9.07;1.88;;;;;;;;;;4932461;28;20098;-79
2023/12/20 08:21:48;;;;;;;7.43;2.03;;;;;;;;;;4967370;28;20042;-79
2023/12/20 08:24:13;;;;;;;6.60;1.65;;;;;;;;;;4951805;28;20496;-78
2023/12/20 08:26:39;;;;;;;8.25;1.70;;;;;;;;;;4946183;28;20053;-77
2023/12/20 08:29:05;;;;;;;8.55;1.90;;;;;;;;;;4939692;28;20070;-77
2023/12/20 08:31:30;;;;;;;7.05;1.85;;;;;;;;;;4964767;28;20493;-77
2023/12/20 08:33:55;;;;;;;10.65;1.77;;;;;;;;;;4964690;28;20035;-78
2023/12/20 08:36:23;;;;;;;6.57;1.80;;;;;;;;;;4950271;28;20117;-78
2023/12/20 08:38:49;;;;;;;9.10;1.83;;;;;;;;;;4984859;28;20100;-77
2023/12/20 08:41:17;;;;;;;8.52;1.63;;;;;;;;;;4989450;28;20114;-79
2023/12/20 08:43:42;;;;;;;9.15;1.70;;;;;;;;;;4997616;28;20046;-77
2023/12/20 08:46:09;;;;;;;6.85;1.50;;;;;;;;;;4955189;28;20038;-78
2023/12/20 08:49:15;;;;;;;7.03;1.63;;;;;;;;;;4946837;28;20350;-77
2023/12/20 08:52:34;;;;;;;;;;;;;;;;;;;;;
2023/12/20 08:55:01;;;;;;;9.82;1.70;;;;;;;;;;4981239;28;20119;-77
2023/12/20 08:57:26;;;;;;;7.15;2.03;;;;;;;;;;4988176;28;20037;-78
2023/12/20 08:59:51;;;;;;;12.10;2.00;;;;;;;;;;5001852;28;20087;-78
2023/12/20 09:02:17;;;;;;;6.00;1.60;;;;;;;;;;5007945;28;20534;-77
2023/12/20 09:04:43;;;;;;;9.75;1.80;;;;;;;;;;5012403;28;20243;-78
2023/12/20 09:07:25;;;;;;;9.02;1.63;;;;;;;;;;4994869;28;20042;-78
2023/12/20 09:09:50;;;;;;;8.75;1.73;;;;;;;;;;5011162;28;20034;-79
2023/12/20 09:12:19;;;;;;;9.65;1.85;;;;;;;;;;4979318;28;20029;-77
2023/12/20 09:14:45;;;;;;;9.35;1.60;;;;;;;;;;4984244;28;20042;-78
2023/12/20 09:17:11;;;;;;;9.75;2.08;;;;;;;;;;5002377;28;20042;-78
2023/12/20 09:19:38;;;;;;;7.90;1.77;;;;;;;;;;4996652;28;20128;-78
2023/12/20 09:22:03;;;;;;;8.77;1.63;;;;;;;;;;4998223;28;20171;-78
2023/12/20 09:24:30;;;;;;;10.23;2.15;;;;;;;;;;5018118;28;20128;-78
2023/12/20 09:26:55;;;;;;;10.32;1.80;;;;;;;;;;4995602;28;20037;-78
2023/12/20 09:29:21;;;;;;;7.57;1.98;;;;;;;;;;4994615;28;20041;-77
2023/12/20 09:31:46;;;;;;;8.23;1.80;;;;;;;;;;4965115;28;20049;-78
2023/12/20 09:34:14;;;;;;;7.35;1.48;;;;;;;;;;4995742;28;20037;-77
2023/12/20 09:36:46;;;;;;;8.50;1.88;;;;;;;;;;4996800;28;20033;-78
2023/12/20 09:39:13;;;;;;;11.02;2.08;;;;;;;;;;5004844;28;20038;-79
2023/12/20 09:41:43;;;;;;;7.47;1.70;;;;;;;;;;4990652;28;20119;-79
2023/12/20 09:44:25;;;;;;;6.95;1.73;;;;;;;;;;5005283;28;20045;-79
2023/12/20 09:46:51;;;;;;;7.05;1.52;;;;;;;;;;5017528;28;20601;-80
2023/12/20 09:49:26;;;;;;;6.30;1.55;;;;;;;;;;5008094;28;20202;-81
2023/12/20 09:51:56;;;;;;;11.85;1.90;;;;;;;;;;5017723;28;20033;-81
2023/12/20 09:54:25;;;;;;;9.75;2.03;;;;;;;;;;4998885;28;20042;-79
2023/12/20 09:56:50;;;;;;;10.50;1.95;;;;;;;;;;4995094;28;20033;-79
2023/12/20 09:59:16;;;;;;;10.63;1.80;;;;;;;;;;4989705;28;20499;-80
2023/12/20 10:01:43;;;;;;;7.28;1.65;;;;;;;;;;4986282;28;20037;-79
2023/12/20 10:04:12;;;;;;;10.02;1.75;;;;;;;;;;5010059;28;20493;-81
2023/12/20 10:06:41;;;;;;;;;;;;;;;;;;5017291;28;20052;-77
2023/12/20 10:09:06;;;;;;;6.30;1.70;;;;;;;;;;5002179;28;19914;-79
2023/12/20 10:11:32;;;;;;;10.38;1.60;;;;;;;;;;4999370;28;20395;-80
2023/12/20 10:14:03;;;;;;;7.68;1.65;;;;;;;;;;4988445;28;20041;-79
2023/12/20 10:16:29;;;;;;;12.52;1.60;;;;;;;;;;4996626;28;20038;-79
2023/12/20 10:18:56;;;;;;;7.88;2.05;;;;;;;;;;5002952;28;20072;-80
2023/12/20 10:21:26;;;;;;;5.50;1.42;;;;;;;;;;5002848;28;20037;-78
2023/12/20 10:23:52;;;;;;;9.18;1.50;;;;;;;;;;5002945;28;20037;-79
2023/12/20 10:26:25;;;;;;;10.45;3.58;;;;;;;;;;4978875;28;20387;-79
2023/12/20 10:29:00;;;;;;;10.93;1.70;;;;;;;;;;5002889;28;20034;-80
2023/12/20 10:31:35;;;;;;;12.45;1.80;;;;;;;;;;5002513;28;20125;-80
2023/12/20 10:34:01;;;;;;;7.65;1.70;;;;;;;;;;5000581;28;20060;-79
2023/12/20 10:36:29;;;;;;;9.03;1.50;;;;;;;;;;4985406;28;20041;-80
2023/12/20 10:38:57;;;;;;;8.07;1.77;;;;;;;;;;4989428;28;20080;-80
2023/12/20 10:41:27;;;;;;;10.43;2.08;;;;;;;;;;5000585;28;20064;-80
2023/12/20 10:44:04;;;;;;;7.45;1.80;;;;;;;;;;5001314;28;20038;-80
2023/12/20 10:46:33;;;;;;;8.10;1.90;;;;;;;;;;4982978;28;24643;-79
2023/12/20 10:48:59;;;;;;;9.93;1.77;;;;;;;;;;4999586;28;20042;-79
2023/12/20 10:51:29;;;;;;;13.52;2.30;;;;;;;;;;4992152;28;20053;-79
2023/12/20 10:53:55;;;;;;;8.43;1.70;;;;;;;;;;4980511;28;20559;-79
2023/12/20 10:56:23;;;;;;;7.80;1.92;;;;;;;;;;4999650;28;20093;-79
2023/12/20 10:58:54;;;;;;;13.07;1.92;;;;;;;;;;4982725;28;20150;-79
2023/12/20 11:01:20;;;;;;;9.15;2.17;;;;;;;;;;4998038;28;20546;-79
2023/12/20 11:03:52;;;;;;;11.68;1.88;;;;;;;;;;4998612;28;20054;-88
2023/12/20 11:06:24;;;;;;;8.35;1.77;;;;;;;;;;4992808;28;20503;-80
2023/12/20 11:09:09;;;;;;;12.07;1.70;;;;;;;;;;4979730;28;20397;-79
2023/12/20 11:12:08;;;;;;;9.80;1.80;;;;;;;;;;4979357;28;20050;-80
2023/12/20 11:14:36;;;;;;;10.88;2.10;;;;;;;;;;4997296;28;20169;-78
2023/12/20 11:17:13;;;;;;;10.45;2.10;;;;;;;;;;4986325;28;20127;-78
2023/12/20 11:20:01;;;;;;;6.15;1.90;;;;;;;;;;4999259;28;20038;-80
2023/12/20 11:22:54;;;;;;;11.85;1.73;;;;;;;;;;4998148;28;20053;-78
2023/12/20 11:25:20;;;;;;;10.70;1.95;;;;;;;;;;4997123;28;20642;-79
2023/12/20 11:28:08;;;;;;;7.75;1.90;;;;;;;;;;4987191;28;20077;-80
2023/12/20 11:30:41;;;;;;;7.82;1.45;;;;;;;;;;4978329;28;20034;-79
2023/12/20 11:33:08;;;;;;;7.82;2.22;;;;;;;;;;4999571;28;20030;-80
2023/12/20 11:35:35;;;;;;;10.03;2.37;;;;;;;;;;4993729;28;20034;-80
2023/12/20 11:38:00;;;;;;;12.10;2.10;;;;;;;;;;4988821;28;20121;-80
2023/12/20 11:40:26;;;;;;;9.32;2.47;;;;;;;;;;4984258;28;20128;-78
2023/12/20 11:42:53;;;;;;;12.30;2.00;;;;;;;;;;4994890;28;20027;-79
2023/12/20 11:45:24;;;;;;;10.27;1.90;;;;;;;;;;4997113;28;20038;-81
2023/12/20 11:47:50;;;;;;;10.55;2.13;;;;;;;;;;4993341;28;20390;-78
2023/12/20 11:50:17;;;;;;;9.85;1.88;;;;;;;;;;4979089;28;20054;-79
2023/12/20 11:52:42;;;;;;;9.15;1.90;;;;;;;;;;5004200;28;20520;-80
2023/12/20 11:55:07;;;;;;;9.75;2.10;;;;;;;;;;4999054;28;20119;-79
2023/12/20 11:57:33;;;;;;;7.78;1.90;;;;;;;;;;4979913;28;20443;-79
2023/12/20 11:59:59;;;;;;;8.70;1.75;;;;;;;;;;4993117;28;20034;-79
2023/12/20 12:02:25;;;;;;;10.73;2.00;;;;;;;;;;4986971;28;20038;-77
2023/12/20 12:04:51;;;;;;;6.32;2.33;;;;;;;;;;4975974;28;20042;-78
2023/12/20 12:07:20;;;;;;;6.70;1.60;;;;;;;;;;4991778;28;20503;-79
2023/12/20 12:09:46;;;;;;;8.20;1.92;;;;;;;;;;4976930;28;20457;-79
2023/12/20 12:12:15;;;;;;;7.53;1.67;;;;;;;;;;4984462;28;20128;-80
2023/12/20 12:14:40;;;;;;;9.68;2.00;;;;;;;;;;4988375;28;20037;-79
2023/12/20 12:17:13;;;;;;;7.80;1.80;;;;;;;;;;4976152;28;20038;-79
2023/12/20 12:19:45;;;;;;;8.20;1.48;;;;;;;;;;4985645;28;20121;-78
2023/12/20 12:22:13;;;;;;;7.75;1.60;;;;;;;;;;4978330;28;20093;-78
2023/12/20 12:25:12;;;;;;;8.48;1.73;;;;;;;;;;4979435;28;20034;-79
2023/12/20 12:27:45;;;;;;;9.35;2.60;;;;;;;;;;4993895;28;20376;-78
2023/12/20 12:30:13;;;;;;;9.07;1.98;;;;;;;;;;4985496;28;20042;-78
2023/12/20 12:32:42;;;;;;;;;;;;;;;;;;4998085;28;20038;-80
2023/12/20 12:35:11;;;;;;;7.22;2.00;;;;;;;;;;4987824;28;19913;-79
2023/12/20 12:37:46;;;;;;;10.27;2.30;;;;;;;;;;4997343;28;20042;-79
2023/12/20 12:40:15;;;;;;;8.00;2.00;;;;;;;;;;4995863;28;20042;-79
2023/12/20 12:42:42;;;;;;;9.73;2.45;;;;;;;;;;4993839;28;20486;-79
2023/12/20 12:45:08;;;;;;;7.13;1.88;;;;;;;;;;4982432;28;20442;-79
2023/12/20 12:47:34;;;;;;;11.30;2.17;;;;;;;;;;4976768;28;20095;-78
2023/12/20 12:49:59;;;;;;;8.93;1.85;;;;;;;;;;4994518;28;20046;-78
2023/12/20 12:52:26;;;;;;;9.48;2.03;;;;;;;;;;4993677;28;20590;-80
2023/12/20 12:54:52;;;;;;;8.27;2.10;;;;;;;;;;4996617;28;20593;-78
2023/12/20 12:57:17;;;;;;;8.50;2.55;;;;;;;;;;4995277;28;20038;-78
2023/12/20 12:59:45;;;;;;;9.13;2.55;;;;;;;;;;4993975;28;20042;-79
2023/12/20 13:02:27;;;;;;;10.32;2.65;;;;;;;;;;4935115;28;20415;-78
2023/12/20 13:04:52;;;;;;;10.02;2.22;;;;;;;;;;4939155;28;20059;-79
2023/12/20 13:07:18;;;;;;;8.15;2.60;;;;;;;;;;4928385;28;20075;-79
2023/12/20 13:09:44;;;;;;;12.77;2.63;;;;;;;;;;4934022;28;20036;-79
2023/12/20 13:12:09;;;;;;;17.67;3.30;;;;;;;;;;4937233;28;20039;-79
2023/12/20 13:14:38;;;;;;;14.20;2.88;;;;;;;;;;4955350;28;20050;-79
2023/12/20 13:17:04;;;;;;;9.13;2.80;;;;;;;;;;4959352;28;20042;-78
2023/12/20 13:19:32;;;;;;;10.07;2.95;;;;;;;;;;4941208;28;20046;-77
2023/12/20 13:22:00;;;;;;;10.30;2.72;;;;;;;;;;4957973;28;20047;-79
2023/12/20 13:24:26;;;;;;;11.50;3.20;;;;;;;;;;4950323;28;20646;-79
2023/12/20 13:26:52;;;;;;;11.00;3.15;;;;;;;;;;4951268;28;20094;-80
2023/12/20 13:29:17;;;;;;;6.50;2.83;;;;;;;;;;4939045;28;20131;-79
2023/12/20 13:31:42;;;;;;;7.68;3.25;;;;;;;;;;4941345;28;20043;-79
2023/12/20 13:34:08;;;;;;;8.75;3.40;;;;;;;;;;4936602;28;20048;-80
2023/12/20 13:36:33;;;;;;;6.72;2.00;;;;;;;;;;4933858;28;20035;-80
2023/12/20 13:38:59;;;;;;;6.35;1.70;;;;;;;;;;4927569;28;20090;-80
2023/12/20 13:41:24;;;;;;;5.30;1.85;;;;;;;;;;4922812;28;20054;-78
2023/12/20 13:43:50;;;;;;;6.07;1.85;;;;;;;;;;4920977;28;20122;-79
2023/12/20 13:46:17;;;;;;;5.45;1.80;;;;;;;;;;4926158;28;20066;-78
2023/12/20 13:48:43;;;;;;;8.38;2.30;;;;;;;;;;4951688;28;20098;-79
2023/12/20 13:51:08;;;;;;;3.53;1.58;;;;;;;;;;4953001;28;20494;-77
2023/12/20 13:53:34;;;;;;;3.72;1.33;;;;;;;;;;4930508;28;20043;-79
2023/12/20 13:55:59;;;;;;;5.30;1.20;;;;;;;;;;4927337;28;20089;-77
2023/12/20 13:58:25;;;;;;;2.55;1.00;;;;;;;;;;4935067;28;20043;-79
2023/12/20 14:00:51;;;;;;;2.55;0.93;;;;;;;;;;4946095;28;20038;-78
2023/12/20 14:03:17;;;;;;;3.60;1.10;;;;;;;;;;4973828;28;20089;-80
2023/12/20 14:05:44;;;;;;;1.80;0.65;;;;;;;;;;4970636;28;20038;-80
2023/12/20 14:08:09;;;;;;;;;;;;;;;;;;4974657;28;20042;-80
2023/12/20 14:10:35;;;;;;;4.47;1.17;;;;;;;;;;4975782;28;19989;-79
2023/12/20 14:13:00;;;;;;;2.70;0.68;;;;;;;;;;4968604;28;20125;-80
2023/12/20 14:15:26;;;;;;;3.55;0.80;;;;;;;;;;4964293;28;20070;-80
2023/12/20 14:17:54;;;;;;;2.63;0.90;;;;;;;;;;4952930;28;20383;-81
2023/12/20 14:20:20;;;;;;;1.65;0.50;;;;;;;;;;4937982;28;20046;-81
2023/12/20 14:22:46;;;;;;;3.47;1.10;;;;;;;;;;4964197;28;20040;-80
2023/12/20 14:25:12;;;;;;;2.00;0.70;;;;;;;;;;4956890;28;20058;-80
2023/12/20 14:27:38;;;;;;;2.78;0.82;;;;;;;;;;4978624;28;20031;-78
2023/12/20 14:30:04;;;;;;;3.35;1.10;;;;;;;;;;4970543;28;20125;-79
2023/12/20 14:32:32;;;;;;;2.90;0.82;;;;;;;;;;4964987;28;20482;-80
2023/12/20 14:34:58;;;;;;;5.38;0.70;;;;;;;;;;4983895;28;20112;-80
2023/12/20 14:37:23;;;;;;;2.85;0.93;;;;;;;;;;4980407;28;20467;-80
2023/12/20 14:39:49;;;;;;;2.85;1.00;;;;;;;;;;4980793;28;20045;-81
2023/12/20 14:42:14;;;;;;;3.45;1.05;;;;;;;;;;4969665;28;20129;-79
2023/12/20 14:44:43;;;;;;;2.83;0.88;;;;;;;;;;4971506;28;20422;-80